Time;durP1;ratioP1;P1;durP2;ratioP2;P2;SDS_P1;SDS_P2;PMS_P1;PMS_P2;Temp;Humidity;BMP_temperature;BMP_pressure;BME280_temperature;BME280_humidity;BME280_pressure;Samples;Min_cycle;Max_cycle;Signal;HPM_P1;HPM_P2
2022/03/23 00:02:08;;;;;;;29.92;25.23;;;;;;;2.67;89.01;103196.03;5030203;28;20551;-48
2022/03/23 00:04:34;;;;;;;32.78;25.92;;;;;;;2.43;88.10;103190.84;5029473;28;20199;-49
2022/03/23 00:06:59;;;;;;;35.50;25.88;;;;;;;2.10;88.61;103187.91;5029539;28;20197;-48
2022/03/23 00:09:26;;;;;;;33.47;25.88;;;;;;;1.91;90.10;103199.59;5028746;28;20164;-49
2022/03/23 00:11:52;;;;;;;38.15;26.63;;;;;;;1.86;90.92;103202.09;5029799;28;20179;-46
2022/03/23 00:14:18;;;;;;;34.22;26.38;;;;;;;1.75;91.65;103190.19;5029672;28;20195;-48
2022/03/23 00:16:44;;;;;;;31.83;26.23;;;;;;;1.74;91.56;103196.34;4996118;28;20180;-49
2022/03/23 00:19:10;;;;;;;32.17;27.58;;;;;;;1.63;91.96;103196.84;5030093;28;20168;-47
2022/03/23 00:21:37;;;;;;;36.28;26.48;;;;;;;1.65;92.79;103196.91;5030053;28;20195;-48
2022/03/23 00:24:04;;;;;;;35.25;27.30;;;;;;;1.68;92.51;103196.13;5029537;28;20223;-46
2022/03/23 00:26:29;;;;;;;33.45;26.80;;;;;;;1.79;92.79;103190.41;5029537;28;20172;-47
2022/03/23 00:28:55;;;;;;;35.72;26.13;;;;;;;1.96;92.92;103196.25;5030181;28;20189;-51
2022/03/23 00:31:22;;;;;;;33.40;26.15;;;;;;;2.04;92.46;103200.09;5029676;28;20361;-48
2022/03/23 00:33:49;;;;;;;34.70;25.80;;;;;;;2.14;92.34;103184.53;5029285;28;20204;-50
2022/03/23 00:36:16;;;;;;;34.70;26.73;;;;;;;1.97;90.89;103186.63;5028232;28;20253;-48
2022/03/23 00:38:42;;;;;;;35.55;26.75;;;;;;;1.80;90.85;103181.63;5029513;28;20397;-50
2022/03/23 00:41:10;;;;;;;35.38;27.30;;;;;;;1.75;90.92;103195.50;5028268;28;20665;-48
2022/03/23 00:43:37;;;;;;;31.88;25.50;;;;;;;1.83;90.93;103191.38;5028818;28;20191;-50
2022/03/23 00:46:03;;;;;;;30.63;25.33;;;;;;;1.93;91.10;103187.34;5012933;28;20199;-46
2022/03/23 00:48:28;;;;;;;36.90;26.30;;;;;;;1.87;90.79;103193.31;5033372;28;20192;-48
2022/03/23 00:50:55;;;;;;;30.52;25.42;;;;;;;1.91;91.06;103186.38;5031655;28;20179;-47
2022/03/23 00:53:21;;;;;;;34.42;25.92;;;;;;;1.91;90.49;103192.56;5031122;28;20511;-49
2022/03/23 00:55:46;;;;;;;33.53;25.25;;;;;;;1.93;90.26;103182.94;5033001;28;20229;-49
2022/03/23 00:58:12;;;;;;;29.00;24.77;;;;;;;1.74;90.33;103186.66;5032968;28;20168;-52
2022/03/23 01:00:41;;;;;;;31.38;24.98;;;;;;;1.72;90.30;103190.09;5031966;28;20199;-47
2022/03/23 01:03:07;;;;;;;32.35;25.83;;;;;;;1.72;90.56;103184.81;5032384;28;20165;-48
2022/03/23 01:05:33;;;;;;;32.35;27.02;;;;;;;1.43;90.41;103182.91;5032699;28;20196;-45
2022/03/23 01:07:59;;;;;;;31.33;25.05;;;;;;;1.51;90.97;103183.22;5031245;28;20168;-47
2022/03/23 01:10:25;;;;;;;35.15;26.52;;;;;;;1.33;90.82;103183.38;5032853;28;20591;-48
2022/03/23 01:12:51;;;;;;;33.28;26.20;;;;;;;0.96;91.66;103168.81;5031156;28;20192;-51
2022/03/23 01:15:21;;;;;;;38.35;27.67;;;;;;;0.85;93.18;103174.47;5032697;28;20200;-52
2022/03/23 01:17:48;;;;;;;35.38;27.33;;;;;;;0.95;93.95;103177.53;5031295;28;20349;-51
2022/03/23 01:20:15;;;;;;;39.30;28.90;;;;;;;1.10;93.66;103182.53;5032246;28;20230;-48
2022/03/23 01:22:43;;;;;;;34.35;26.73;;;;;;;1.23;94.25;103179.50;5030873;28;20242;-47
2022/03/23 01:25:09;;;;;;;34.03;27.30;;;;;;;1.10;93.71;103179.88;5032695;28;20204;-48
2022/03/23 01:27:36;;;;;;;39.75;28.00;;;;;;;0.99;93.84;103168.03;5032363;28;20702;-49
2022/03/23 01:30:07;;;;;;;38.00;27.60;;;;;;;1.17;93.57;103175.75;5032902;28;20376;-48
2022/03/23 01:32:35;;;;;;;30.52;24.50;;;;;;;1.32;93.44;103183.34;5031655;28;20553;-47
2022/03/23 01:35:03;;;;;;;31.63;25.67;;;;;;;1.18;93.23;103185.44;5032465;28;20671;-49
2022/03/23 01:37:28;;;;;;;31.15;24.70;;;;;;;1.10;92.92;103173.72;5032363;28;20276;-48
2022/03/23 01:39:54;;;;;;;35.50;27.65;;;;;;;1.02;92.87;103171.66;5030963;28;20654;-50
2022/03/23 01:42:20;;;;;;;37.85;27.95;;;;;;;0.99;93.63;103168.03;5031506;28;20582;-50
2022/03/23 01:44:45;;;;;;;35.08;27.58;;;;;;;1.08;93.72;103159.56;5031983;28;20283;-47
2022/03/23 01:47:16;;;;;;;39.65;26.65;;;;;;;0.96;93.21;103160.88;5030618;28;20286;-47
2022/03/23 01:49:45;;;;;;;38.28;27.35;;;;;;;0.94;93.91;103167.84;5030912;28;20183;-52
2022/03/23 01:52:14;;;;;;;36.30;27.52;;;;;;;0.92;93.74;103158.03;5031592;28;20601;-46
2022/03/23 01:54:40;;;;;;;35.67;26.60;;;;;;;1.06;93.82;103167.41;5031019;28;20215;-45
2022/03/23 01:57:09;;;;;;;32.83;26.92;;;;;;;1.13;93.38;103169.44;5029769;28;20214;-49
2022/03/23 01:59:35;;;;;;;36.42;25.95;;;;;;;1.24;93.16;103172.47;5030229;28;20172;-48
2022/03/23 02:02:01;;;;;;;30.13;25.05;;;;;;;1.26;92.94;103159.34;5030643;28;20180;-48
2022/03/23 02:04:30;;;;;;;32.55;25.23;;;;;;;1.23;92.38;103161.03;5023221;28;20588;-49
2022/03/23 02:06:56;;;;;;;30.75;25.90;;;;;;;1.31;92.29;103163.97;5050555;28;20185;-44
2022/03/23 02:09:25;;;;;;;32.38;26.58;;;;;;;1.21;91.42;103159.19;5050388;28;20853;-45
2022/03/23 02:11:52;;;;;;;38.00;27.23;;;;;;;1.00;91.69;103159.25;5050225;28;20179;-45
2022/03/23 02:14:18;;;;;;;34.60;26.13;;;;;;;1.13;92.27;103156.22;5049896;28;20684;-45
2022/03/23 02:16:50;;;;;;;30.98;25.67;;;;;;;1.15;91.09;103158.94;5050274;28;20251;-44
2022/03/23 02:19:15;;;;;;;32.97;24.90;;;;;;;1.07;91.53;103156.00;5040373;28;20599;-44
2022/03/23 02:21:45;;;;;;;33.72;26.58;;;;;;;1.05;91.73;103164.69;5048056;28;20266;-47
2022/03/23 02:24:12;;;;;;;36.08;26.30;;;;;;;1.03;92.00;103162.03;5049090;28;20673;-46
2022/03/23 02:26:38;;;;;;;36.30;26.10;;;;;;;1.08;92.01;103165.72;5051348;28;20179;-45
2022/03/23 02:29:07;;;;;;;31.85;25.38;;;;;;;1.08;91.76;103162.19;5051269;28;20175;-47
2022/03/23 02:31:32;;;;;;;30.02;24.67;;;;;;;1.11;91.86;103149.09;5051177;28;20325;-45
2022/03/23 02:33:58;;;;;;;32.15;26.90;;;;;;;1.05;91.95;103143.56;5050629;28;20389;-49
2022/03/23 02:36:24;;;;;;;34.38;26.30;;;;;;;1.08;92.00;103138.44;5050705;28;20217;-47
2022/03/23 02:38:49;;;;;;;32.20;25.02;;;;;;;1.01;91.57;103147.88;5050641;28;20266;-45
2022/03/23 02:41:15;;;;;;;31.05;25.10;;;;;;;1.03;91.87;103149.72;5050924;28;20167;-46
2022/03/23 02:43:40;;;;;;;33.67;23.85;;;;;;;1.14;91.98;103151.88;5050540;28;20183;-46
2022/03/23 02:46:12;;;;;;;31.88;25.48;;;;;;;1.05;91.31;103149.78;5032655;28;20564;-45
2022/03/23 02:48:37;;;;;;;32.88;25.40;;;;;;;0.86;91.66;103152.53;5050624;28;20672;-48
2022/03/23 02:51:03;;;;;;;30.77;24.83;;;;;;;0.98;91.57;103147.72;5033136;28;20179;-46
2022/03/23 03:02:17;;;;;;;31.10;25.02;;;;;;;0.76;93.52;103154.78;5050586;28;20194;-46
2022/03/23 03:04:43;;;;;;;34.13;25.77;;;;;;;0.80;93.46;103159.34;5050237;28;20195;-43
2022/03/23 03:07:08;;;;;;;34.50;26.00;;;;;;;0.85;92.87;103150.72;5049883;28;20688;-42
2022/03/23 03:09:34;;;;;;;32.25;25.95;;;;;;;0.89;92.52;103157.94;5049952;28;20575;-45
2022/03/23 03:11:59;;;;;;;29.48;24.50;;;;;;;0.88;92.15;103156.16;5048755;28;20270;-46
2022/03/23 03:14:24;;;;;;;31.00;24.42;;;;;;;0.89;91.73;103153.53;5050264;28;20687;-46
2022/03/23 03:16:50;;;;;;;34.05;26.30;;;;;;;0.66;91.70;103160.56;5050223;28;20167;-45
2022/03/23 03:19:15;;;;;;;32.53;25.85;;;;;;;0.63;91.96;103170.09;5050360;28;20270;-46
2022/03/23 03:21:41;;;;;;;34.00;25.85;;;;;;;0.67;92.65;103162.34;5050229;28;20309;-44
2022/03/23 03:24:07;;;;;;;34.42;25.77;;;;;;;0.66;92.31;103171.13;5050009;28;20202;-46
2022/03/23 03:26:32;;;;;;;36.70;27.40;;;;;;;0.57;92.39;103165.47;5049924;28;20179;-49
2022/03/23 03:28:58;;;;;;;37.28;27.90;;;;;;;0.36;92.95;103176.94;5049744;28;20175;-46
2022/03/23 03:31:23;;;;;;;36.15;26.80;;;;;;;0.08;94.10;103177.50;5049067;28;20222;-46
2022/03/23 03:33:49;;;;;;;38.40;29.33;;;;;;;0.20;94.57;103179.78;5049392;28;20552;-44
2022/03/23 03:36:16;;;;;;;35.42;28.15;;;;;;;0.20;94.96;103164.84;5049984;28;20303;-46
2022/03/23 03:38:43;;;;;;;39.75;29.60;;;;;;;0.16;95.58;103175.19;5049993;28;20324;-46
2022/03/23 03:41:08;;;;;;;39.08;28.45;;;;;;;0.27;95.86;103173.03;5050031;28;20269;-47
2022/03/23 03:43:35;;;;;;;40.03;28.73;;;;;;;0.10;96.02;103167.03;5049632;28;20614;-47
2022/03/23 03:46:02;;;;;;;37.83;28.60;;;;;;;0.02;96.33;103165.78;5049670;28;20163;-47
2022/03/23 03:48:27;;;;;;;40.03;29.85;;;;;;;0.18;97.13;103170.91;5050102;28;20642;-46
2022/03/23 03:50:54;;;;;;;39.72;29.30;;;;;;;0.31;97.04;103170.56;5050014;28;20242;-45
2022/03/23 03:53:19;;;;;;;36.22;27.95;;;;;;;0.35;96.75;103171.56;5049072;28;20572;-47
2022/03/23 03:55:45;;;;;;;40.40;30.00;;;;;;;0.13;96.56;103169.78;5049906;28;20273;-46
2022/03/23 03:58:12;;;;;;;39.70;29.80;;;;;;;0.27;97.08;103171.28;5050027;28;20174;-45
2022/03/23 04:00:38;;;;;;;38.33;28.95;;;;;;;0.38;97.77;103177.88;5050114;28;20207;-46
2022/03/23 04:03:05;;;;;;;39.50;29.08;;;;;;;0.43;97.08;103174.56;5049138;28;20163;-45
2022/03/23 04:05:33;;;;;;;38.80;29.63;;;;;;;0.50;96.65;103172.22;5032015;28;20662;-44
2022/03/23 04:07:59;;;;;;;42.35;30.33;;;;;;;0.53;96.73;103168.81;5030134;28;20184;-45
2022/03/23 04:10:25;;;;;;;43.38;30.23;;;;;;;0.31;96.42;103173.22;5029637;28;20160;-45
2022/03/23 04:12:51;;;;;;;45.65;31.38;;;;;;;0.30;97.04;103176.66;5029391;28;20231;-46
2022/03/23 04:15:19;;;;;;;37.38;30.17;;;;;;;0.39;97.09;103177.06;5029656;28;20223;-45
2022/03/23 04:17:45;;;;;;;41.97;31.75;;;;;;;0.35;96.88;103175.13;5032376;28;20212;-46
2022/03/23 04:20:11;;;;;;;43.22;32.75;;;;;;;0.09;97.14;103178.38;5048071;28;20171;-46
2022/03/23 04:22:38;;;;;;;45.60;34.33;;;;;;;0.11;98.05;103188.19;5051289;28;20171;-46
2022/03/23 04:25:07;;;;;;;45.90;33.78;;;;;;;0.24;98.89;103181.72;5053605;28;20195;-47
2022/03/23 04:27:34;;;;;;;43.95;33.30;;;;;;;0.29;98.47;103188.06;5052144;28;20685;-47
2022/03/23 04:30:00;;;;;;;42.85;32.70;;;;;;;0.39;98.48;103185.00;5051962;28;20167;-44
2022/03/23 04:32:25;;;;;;;44.15;33.60;;;;;;;0.36;97.78;103176.94;5052614;28;20190;-46
2022/03/23 04:34:51;;;;;;;43.63;31.42;;;;;;;0.40;97.93;103178.84;5053112;28;20245;-46
2022/03/23 04:37:16;;;;;;;46.15;33.60;;;;;;;0.35;97.31;103175.13;5053717;28;20178;-47
2022/03/23 04:39:41;;;;;;;43.45;32.53;;;;;;;0.37;97.11;103185.72;5053400;28;20669;-44
2022/03/23 04:42:07;;;;;;;43.85;32.45;;;;;;;0.37;96.76;103177.81;5053540;28;20664;-47
2022/03/23 04:44:32;;;;;;;45.17;33.28;;;;;;;0.28;97.05;103188.00;5052717;28;20262;-46
2022/03/23 04:46:58;;;;;;;44.38;32.80;;;;;;;0.10;96.67;103173.19;5053358;28;20638;-48
2022/03/23 04:49:23;;;;;;;47.65;34.55;;;;;;;-0.03;97.22;103182.31;5053079;28;20702;-46
2022/03/23 04:51:48;;;;;;;48.25;35.92;;;;;;;0.04;97.82;103183.47;5051544;28;20186;-45
2022/03/23 04:54:14;;;;;;;48.38;36.10;;;;;;;0.12;97.80;103179.44;5052618;28;20615;-45
2022/03/23 04:56:39;;;;;;;46.30;34.75;;;;;;;0.14;98.02;103179.50;5052897;28;20168;-47
2022/03/23 04:59:05;;;;;;;48.10;37.03;;;;;;;0.13;97.68;103178.63;5051687;28;20274;-44
2022/03/23 05:01:31;;;;;;;47.55;36.40;;;;;;;0.14;98.43;103179.50;5052745;28;20216;-46
2022/03/23 05:03:57;;;;;;;51.13;37.85;;;;;;;0.17;98.29;103191.06;5047503;28;20196;-44
2022/03/23 05:06:23;;;;;;;45.50;34.40;;;;;;;0.25;98.30;103185.25;5032638;28;20165;-44
2022/03/23 05:08:49;;;;;;;54.78;38.58;;;;;;;0.27;97.64;103171.28;5032356;28;20172;-46
2022/03/23 05:11:14;;;;;;;51.08;38.00;;;;;;;0.22;97.78;103183.38;5032689;28;20225;-45
2022/03/23 05:13:40;;;;;;;54.85;39.85;;;;;;;0.20;97.42;103182.41;5031659;28;20550;-45
2022/03/23 05:16:07;;;;;;;50.75;38.90;;;;;;;0.13;97.60;103173.34;5032060;28;20254;-44
2022/03/23 05:18:33;;;;;;;52.40;38.50;;;;;;;-0.06;97.37;103171.66;5032011;28;20259;-46
2022/03/23 05:20:58;;;;;;;54.72;40.50;;;;;;;-0.06;98.04;103166.38;5032061;28;20615;-44
2022/03/23 05:23:24;;;;;;;53.75;39.10;;;;;;;0.05;98.32;103180.00;5031651;28;20172;-44
2022/03/23 05:25:49;;;;;;;53.58;39.70;;;;;;;0.07;99.09;103186.25;5032119;28;20188;-47
2022/03/23 05:28:14;;;;;;;56.95;39.42;;;;;;;0.20;98.71;103185.03;5031798;28;20188;-44
2022/03/23 05:30:40;;;;;;;57.80;42.65;;;;;;;0.22;98.33;103183.38;5032040;28;20168;-45
2022/03/23 05:33:05;;;;;;;60.13;44.28;;;;;;;0.13;99.00;103182.97;5031242;28;20210;-45
2022/03/23 05:35:31;;;;;;;61.20;42.92;;;;;;;0.14;98.72;103179.50;5031007;28;20637;-44
2022/03/23 05:37:57;;;;;;;58.28;43.10;;;;;;;0.18;99.20;103176.16;5032065;28;20177;-45
2022/03/23 05:40:23;;;;;;;60.42;42.40;;;;;;;0.27;99.16;103189.72;5029741;28;20211;-45
2022/03/23 05:42:49;;;;;;;58.22;42.58;;;;;;;0.32;98.97;103188.19;5031233;28;20184;-46
2022/03/23 05:45:16;;;;;;;63.47;45.83;;;;;;;0.13;98.18;103188.22;5029927;28;20251;-45
2022/03/23 05:47:41;;;;;;;61.17;46.10;;;;;;;0.20;98.89;103192.94;5030403;28;20255;-44
2022/03/23 05:50:09;;;;;;;61.72;43.10;;;;;;;0.36;98.60;103194.50;5031516;28;20267;-45
2022/03/23 05:52:36;;;;;;;59.30;43.95;;;;;;;0.49;98.99;103188.00;5030911;28;20189;-44
2022/03/23 05:55:02;;;;;;;63.10;46.17;;;;;;;0.58;98.02;103196.28;5031915;28;20219;-45
2022/03/23 05:57:28;;;;;;;59.95;44.15;;;;;;;0.67;98.91;103193.13;5031370;28;20654;-46
2022/03/23 05:59:54;;;;;;;61.42;45.60;;;;;;;0.74;98.21;103197.78;5031213;28;20219;-45
2022/03/23 06:02:19;;;;;;;64.10;48.38;;;;;;;0.71;97.80;103195.03;5030880;28;20654;-45
2022/03/23 06:04:46;;;;;;;62.63;46.88;;;;;;;0.55;98.18;103191.78;5030583;28;20196;-46
2022/03/23 06:07:11;;;;;;;69.72;48.58;;;;;;;0.47;98.28;103205.50;5030989;28;20175;-45
2022/03/23 06:09:37;;;;;;;74.20;52.80;;;;;;;0.64;98.94;103206.19;5031001;28;20459;-45
2022/03/23 06:12:04;;;;;;;74.50;53.25;;;;;;;0.81;99.80;103198.13;5030195;28;20539;-45
2022/03/23 06:14:29;;;;;;;73.82;51.83;;;;;;;0.93;99.82;103183.59;5030914;28;20719;-44
2022/03/23 06:16:55;;;;;;;77.55;54.97;;;;;;;1.26;99.95;103193.69;5013475;28;20255;-43
2022/03/23 06:19:20;;;;;;;79.13;56.65;;;;;;;1.50;100.00;103201.63;5030119;28;20183;-44
2022/03/23 06:21:46;;;;;;;80.10;57.08;;;;;;;1.79;99.48;103210.63;5029899;28;20191;-45
2022/03/23 06:24:11;;;;;;;82.57;57.83;;;;;;;1.99;98.99;103213.97;5031377;28;20539;-44
2022/03/23 06:26:37;;;;;;;78.53;58.65;;;;;;;2.31;98.41;103217.75;5031632;28;20608;-45
2022/03/23 06:29:03;;;;;;;73.25;55.65;;;;;;;2.43;97.59;103212.00;5029675;28;20520;-45
2022/03/23 06:31:28;;;;;;;68.93;52.05;;;;;;;2.72;96.68;103209.41;5031289;28;20183;-46
2022/03/23 06:33:54;;;;;;;65.75;51.60;;;;;;;2.95;95.59;103219.00;5029844;28;20204;-45
2022/03/23 06:36:19;;;;;;;70.05;51.05;;;;;;;3.01;93.96;103215.63;5030219;28;20175;-45
2022/03/23 06:38:46;;;;;;;62.58;49.28;;;;;;;3.26;93.50;103212.00;5030712;28;20176;-46
2022/03/23 06:41:11;;;;;;;61.53;48.10;;;;;;;3.40;92.24;103218.59;5031401;28;20176;-44
2022/03/23 06:43:38;;;;;;;61.90;46.92;;;;;;;3.74;91.59;103213.38;5030050;28;20179;-44
2022/03/23 06:46:04;;;;;;;63.35;48.50;;;;;;;4.04;90.64;103211.56;5054643;28;20508;-43
2022/03/23 06:48:29;;;;;;;61.33;47.15;;;;;;;4.36;90.16;103223.94;5050868;28;20198;-42
2022/03/23 06:50:54;;;;;;;65.05;50.78;;;;;;;4.67;89.63;103217.63;5050942;28;20213;-43
2022/03/23 06:53:20;;;;;;;63.90;49.20;;;;;;;4.87;88.70;103212.78;5049243;28;20225;-44
2022/03/23 06:55:45;;;;;;;65.25;50.70;;;;;;;5.17;88.38;103215.28;5049548;28;20187;-43
2022/03/23 06:58:11;;;;;;;60.90;48.03;;;;;;;5.43;87.26;103214.97;5049130;28;20175;-44
2022/03/23 07:00:38;;;;;;;62.60;50.88;;;;;;;5.69;86.60;103218.16;5050921;28;20233;-45
2022/03/23 07:03:05;;;;;;;65.82;49.58;;;;;;;5.87;85.47;103214.97;5049654;28;20183;-43
2022/03/23 07:05:31;;;;;;;61.17;50.67;;;;;;;6.07;84.99;103212.72;5031158;28;20625;-44
2022/03/23 07:10:40;;;;;;;63.80;49.35;;;;;;;6.49;83.22;103222.34;5049199;28;20630;-42
2022/03/23 07:13:06;;;;;;;60.13;49.63;;;;;;;6.68;82.75;103219.13;5049032;28;20188;-45
2022/03/23 07:15:31;;;;;;;57.03;48.88;;;;;;;6.57;81.34;103210.94;5046973;28;20189;-44
2022/03/23 07:17:57;;;;;;;55.28;47.90;;;;;;;6.94;81.25;103213.31;5049940;28;20533;-42
2022/03/23 07:20:24;;;;;;;54.00;46.28;;;;;;;7.23;79.91;103219.97;5049405;28;20191;-44
2022/03/23 07:22:49;;;;;;;55.10;46.40;;;;;;;7.22;79.30;103219.97;5049710;28;20580;-44
2022/03/23 07:25:15;;;;;;;63.97;49.80;;;;;;;7.28;78.46;103220.06;5048990;28;20195;-43
2022/03/23 07:27:41;;;;;;;59.40;49.60;;;;;;;7.39;78.46;103217.50;5050429;28;20187;-44
2022/03/23 07:30:07;;;;;;;58.22;49.53;;;;;;;7.29;79.29;103224.50;5050083;28;20175;-44
2022/03/23 07:32:33;;;;;;;61.30;50.42;;;;;;;7.31;79.46;103222.75;5050438;28;20211;-43
2022/03/23 07:34:59;;;;;;;61.60;50.58;;;;;;;7.43;79.71;103222.00;5050333;28;20462;-42
2022/03/23 07:37:24;;;;;;;62.72;51.85;;;;;;;7.39;80.11;103221.09;5053910;28;20194;-44
2022/03/23 07:39:49;;;;;;;63.15;51.17;;;;;;;7.59;80.20;103218.69;5050048;28;20217;-43
2022/03/23 07:42:15;;;;;;;59.42;49.03;;;;;;;7.63;79.66;103222.25;5050405;28;20202;-44
2022/03/23 07:44:40;;;;;;;58.17;49.67;;;;;;;8.02;80.06;103219.19;5049889;28;20605;-45
2022/03/23 07:47:13;;;;;;;58.22;48.47;;;;;;;8.23;78.94;103230.97;5050399;28;20172;-44
2022/03/23 07:49:39;;;;;;;55.90;48.03;;;;;;;8.43;77.77;103226.72;5049557;28;20195;-45
2022/03/23 07:52:05;;;;;;;54.88;46.42;;;;;;;8.79;77.34;103213.66;5049901;28;20175;-44
2022/03/23 07:54:31;;;;;;;53.50;45.63;;;;;;;9.06;76.75;103211.19;5049537;28;20238;-44
2022/03/23 07:56:57;;;;;;;54.10;46.63;;;;;;;8.98;75.89;103220.94;5048496;28;20186;-44
2022/03/23 07:59:22;;;;;;;51.83;44.95;;;;;;;9.02;75.66;103219.19;5050034;28;20171;-43
2022/03/23 08:01:48;;;;;;;51.65;45.03;;;;;;;8.95;75.59;103226.28;5050035;28;20187;-43
2022/03/23 08:04:13;;;;;;;53.25;45.03;;;;;;;8.94;75.66;103228.91;5042757;28;20227;-44
2022/03/23 08:06:39;;;;;;;49.35;43.22;;;;;;;9.20;74.70;103226.41;5030121;28;20276;-45
2022/03/23 08:09:05;;;;;;;49.13;43.38;;;;;;;9.38;73.85;103226.53;5046648;28;20198;-45
2022/03/23 08:11:30;;;;;;;48.70;43.33;;;;;;;9.56;71.82;103231.09;5049538;28;20187;-44
2022/03/23 08:13:56;;;;;;;48.65;41.10;;;;;;;9.67;71.82;103236.50;5049407;28;20214;-46
2022/03/23 08:16:23;;;;;;;47.15;41.22;;;;;;;9.86;70.84;103229.41;5049762;28;20626;-44
2022/03/23 08:18:48;;;;;;;49.03;41.53;;;;;;;9.82;71.16;103232.97;5049714;28;20250;-44
2022/03/23 08:21:16;;;;;;;47.67;42.50;;;;;;;9.68;72.46;103240.94;5049339;28;20228;-43
2022/03/23 08:23:41;;;;;;;46.13;40.65;;;;;;;9.72;71.85;103231.16;5049237;28;20195;-42
2022/03/23 08:26:13;;;;;;;49.97;41.15;;;;;;;9.65;72.96;103241.81;5049541;28;20280;-43
2022/03/23 08:28:40;;;;;;;45.60;39.70;;;;;;;9.81;73.05;103234.75;5049083;28;20242;-43
2022/03/23 08:31:05;;;;;;;45.05;40.17;;;;;;;9.96;72.58;103228.53;5049400;28;20276;-43
2022/03/23 08:33:34;;;;;;;47.65;40.65;;;;;;;9.41;72.94;103237.25;5049032;28;20652;-43
2022/03/23 08:36:00;;;;;;;44.95;39.13;;;;;;;9.79;72.34;103243.66;5049309;28;20324;-43
2022/03/23 08:38:26;;;;;;;43.95;39.15;;;;;;;10.06;72.17;103230.38;5049234;28;20202;-43
2022/03/23 08:40:51;;;;;;;47.05;38.45;;;;;;;10.13;71.06;103233.97;5049038;28;20475;-43
2022/03/23 08:43:17;;;;;;;43.45;38.30;;;;;;;10.18;71.29;103228.59;5049165;28;20233;-43
2022/03/23 08:45:42;;;;;;;47.83;40.90;;;;;;;10.17;70.81;103235.75;5049285;28;20253;-43
2022/03/23 08:48:09;;;;;;;48.28;39.45;;;;;;;10.22;70.98;103233.09;5049262;28;20187;-42
2022/03/23 08:50:36;;;;;;;43.60;38.53;;;;;;;10.39;71.66;103238.50;5049143;28;20170;-40
2022/03/23 08:53:03;;;;;;;49.28;39.80;;;;;;;10.35;71.62;103234.91;5047884;28;20215;-41
2022/03/23 08:55:29;;;;;;;42.15;37.55;;;;;;;10.69;70.99;103227.81;5049471;28;20218;-42
2022/03/23 08:57:55;;;;;;;40.90;36.50;;;;;;;10.93;69.90;103224.22;5049204;28;20558;-42
2022/03/23 09:00:22;;;;;;;42.70;37.17;;;;;;;10.79;69.68;103231.34;5049601;28;20210;-42
2022/03/23 09:02:47;;;;;;;40.65;36.38;;;;;;;10.97;70.00;103225.06;5049079;28;20179;-42
2022/03/23 09:05:14;;;;;;;40.60;36.20;;;;;;;11.02;68.58;103223.31;5049214;28;20544;-43
2022/03/23 09:07:43;;;;;;;39.42;35.13;;;;;;;11.09;68.62;103225.06;5051374;28;20229;-42
2022/03/23 09:10:10;;;;;;;41.72;35.60;;;;;;;10.84;68.73;103228.66;5052664;28;20168;-42
2022/03/23 09:12:36;;;;;;;38.83;34.72;;;;;;;11.00;68.20;103217.03;5053264;28;20190;-42
2022/03/23 09:15:03;;;;;;;39.75;35.45;;;;;;;11.23;66.92;103221.47;5052523;28;20237;-42
2022/03/23 09:17:29;;;;;;;39.40;35.15;;;;;;;11.13;67.10;103217.91;5052893;28;20176;-44
2022/03/23 09:19:55;;;;;;;38.75;34.63;;;;;;;11.28;67.34;103223.25;5052548;28;20266;-43
2022/03/23 09:22:21;;;;;;;38.63;34.53;;;;;;;11.30;66.41;103213.41;5052301;28;20249;-45
2022/03/23 09:24:47;;;;;;;40.50;35.67;;;;;;;10.70;65.87;103228.69;5051189;28;20187;-45
2022/03/23 09:27:12;;;;;;;42.03;35.35;;;;;;;10.51;66.94;103212.59;5052314;28;20277;-42
2022/03/23 09:29:39;;;;;;;41.00;36.17;;;;;;;10.66;68.43;103230.47;5052330;28;20167;-40
2022/03/23 09:32:09;;;;;;;38.55;34.50;;;;;;;11.06;68.53;103219.72;5052215;28;20163;-42
2022/03/23 09:34:36;;;;;;;38.72;34.65;;;;;;;11.22;68.86;103217.00;5052677;28;20218;-45
2022/03/23 09:39:46;;;;;;;42.08;35.13;;;;;;;11.75;67.24;103222.16;5052090;28;20163;-41
2022/03/23 09:42:12;;;;;;;45.65;36.03;;;;;;;11.61;66.02;103221.34;5052033;28;20657;-43
2022/03/23 09:44:38;;;;;;;40.25;35.92;;;;;;;10.96;66.38;103225.09;5051887;28;20199;-42
2022/03/23 09:47:05;;;;;;;40.03;35.50;;;;;;;11.23;67.95;103224.13;5051885;28;20244;-42
2022/03/23 09:49:30;;;;;;;43.42;37.97;;;;;;;10.77;68.26;103227.78;5051758;28;20218;-41
2022/03/23 09:51:56;;;;;;;43.78;35.65;;;;;;;11.04;67.32;103221.50;5052000;28;20202;-43
2022/03/23 09:54:22;;;;;;;47.22;36.55;;;;;;;11.09;67.92;103225.06;5051516;28;20253;-41
2022/03/23 09:56:48;;;;;;;40.75;36.40;;;;;;;10.97;67.75;103221.50;5051920;28;20262;-43
2022/03/23 09:59:14;;;;;;;46.85;37.38;;;;;;;11.02;69.60;103223.31;5051963;28;20163;-43
2022/03/23 10:01:51;;;;;;;39.40;35.03;;;;;;;11.58;68.05;103224.03;5051461;28;20666;-44
2022/03/23 10:04:37;;;;;;;45.15;38.13;;;;;;;11.36;67.45;103228.56;5051681;28;20191;-42
2022/03/23 10:07:31;;;;;;;39.25;35.15;;;;;;;10.93;66.46;103223.28;5051402;28;20177;-44
2022/03/23 10:10:23;;;;;;;41.17;36.88;;;;;;;10.70;69.59;103234.94;5051685;28;20175;-42
2022/03/23 10:13:26;;;;;;;42.10;36.67;;;;;;;10.65;68.13;103227.81;5051407;28;20303;-43
2022/03/23 10:16:14;;;;;;;42.60;36.95;;;;;;;10.72;68.96;103222.44;5051583;28;20186;-40
2022/03/23 10:18:55;;;;;;;41.25;36.35;;;;;;;10.81;67.53;103224.22;5050234;28;20194;-43
2022/03/23 10:21:23;;;;;;;40.45;36.13;;;;;;;11.27;66.76;103224.13;5051467;28;20171;-42
2022/03/23 10:24:12;;;;;;;43.33;37.25;;;;;;;10.90;67.71;103210.78;5051141;28;20224;-41
2022/03/23 10:26:40;;;;;;;41.53;36.03;;;;;;;10.84;67.68;103224.19;5049979;28;20657;-44
2022/03/23 10:29:19;;;;;;;44.35;38.58;;;;;;;11.02;68.06;103217.94;5051580;28;20278;-40
2022/03/23 10:31:44;;;;;;;40.88;36.28;;;;;;;11.01;67.31;103216.13;5051281;28;20187;-43
2022/03/23 10:34:10;;;;;;;42.42;37.88;;;;;;;10.18;69.38;103218.78;5051174;28;20679;-43
2022/03/23 10:36:38;;;;;;;41.42;37.13;;;;;;;10.38;70.74;103215.25;5050983;28;20164;-44
2022/03/23 10:39:05;;;;;;;41.80;37.28;;;;;;;10.44;69.64;103218.84;5051193;28;20179;-44
2022/03/23 10:41:31;;;;;;;42.08;37.15;;;;;;;10.15;69.91;103218.78;5050737;28;20538;-43
2022/03/23 10:43:57;;;;;;;41.22;36.83;;;;;;;10.16;70.12;103222.34;5051155;28;20187;-42
2022/03/23 10:46:23;;;;;;;44.90;39.67;;;;;;;10.21;70.44;103218.81;5050766;28;20179;-44
2022/03/23 10:48:59;;;;;;;42.50;37.95;;;;;;;10.69;70.10;103210.78;5050765;28;20202;-43
2022/03/23 10:51:29;;;;;;;41.40;37.00;;;;;;;10.25;70.34;103206.28;5050584;28;20191;-43
2022/03/23 10:53:56;;;;;;;40.45;36.05;;;;;;;10.30;70.13;103209.91;5050186;28;20741;-41
2022/03/23 10:56:34;;;;;;;42.28;37.80;;;;;;;10.13;71.32;103209.84;5050662;28;20238;-42
2022/03/23 10:59:25;;;;;;;41.50;36.88;;;;;;;10.89;69.73;103206.31;5050411;28;20160;-42
2022/03/23 11:01:59;;;;;;;38.88;34.90;;;;;;;11.16;68.32;103203.59;5050659;28;20236;-43
2022/03/23 11:04:29;;;;;;;41.88;36.75;;;;;;;11.01;68.48;103205.41;5050370;28;20241;-41
2022/03/23 11:06:58;;;;;;;38.83;34.70;;;;;;;11.28;67.37;103196.41;5050686;28;20531;-43
2022/03/23 11:18:08;;;;;;;37.83;33.78;;;;;;;11.06;66.97;103198.25;5050115;28;20265;-45
2022/03/23 11:20:53;;;;;;;41.15;35.22;;;;;;;11.42;66.51;103188.28;5050514;28;20209;-44
2022/03/23 11:23:36;;;;;;;35.50;31.60;;;;;;;11.47;65.77;103190.97;5049880;28;20178;-42
2022/03/23 11:26:09;;;;;;;40.05;35.85;;;;;;;10.44;67.85;103191.16;5050321;28;20574;-39
2022/03/23 11:28:39;;;;;;;39.10;34.85;;;;;;;10.26;68.29;103187.53;5050028;28;20167;-40
2022/03/23 11:31:10;;;;;;;41.00;34.60;;;;;;;10.77;69.47;103181.31;5049835;28;20215;-42
2022/03/23 11:33:37;;;;;;;39.75;34.53;;;;;;;11.04;68.54;103181.28;5049833;28;20529;-42
2022/03/23 11:36:11;;;;;;;37.63;33.63;;;;;;;10.99;68.46;103183.06;5049792;28;20191;-44
2022/03/23 11:38:38;;;;;;;39.95;35.63;;;;;;;10.24;70.20;103178.59;5050207;28;20214;-44